Time;durP1;ratioP1;P1;durP2;ratioP2;P2;SDS_P1;SDS_P2;PMS_P1;PMS_P2;Temp;Humidity;BMP_temperature;BMP_pressure;BME280_temperature;BME280_humidity;BME280_pressure;Samples;Min_cycle;Max_cycle;Signal;HPM_P1;HPM_P2
2023/04/10 00:00:22;;;;;;;32.90;15.45;;;;;;;9.52;100.00;101926.19;5069693;28;20508;-48
2023/04/10 00:02:48;;;;;;;34.58;14.32;;;;;;;9.55;100.00;101914.28;5069880;28;20044;-47
2023/04/10 00:05:14;;;;;;;28.77;14.30;;;;;;;9.58;100.00;101919.34;5069232;28;20110;-47
2023/04/10 00:07:39;;;;;;;35.38;15.38;;;;;;;9.56;100.00;101911.47;5055080;28;20041;-49
2023/04/10 00:10:05;;;;;;;29.00;14.35;;;;;;;9.56;100.00;101907.94;5068140;28;20103;-47
2023/04/10 00:12:30;;;;;;;28.20;14.63;;;;;;;9.58;100.00;101898.69;5061023;28;20037;-49
2023/04/10 00:14:56;;;;;;;32.05;14.52;;;;;;;9.58;100.00;101904.06;5055997;28;20071;-47
2023/04/10 00:17:21;;;;;;;28.00;13.80;;;;;;;9.59;100.00;101894.19;5064984;28;20035;-48
2023/04/10 00:19:46;;;;;;;30.38;14.80;;;;;;;9.60;100.00;101901.25;5073404;28;20152;-46
2023/04/10 00:22:12;;;;;;;28.63;14.32;;;;;;;9.63;100.00;101892.88;5054734;28;20033;-49
2023/04/10 00:24:37;;;;;;;26.05;13.50;;;;;;;9.62;100.00;101894.72;5054663;28;20671;-47
2023/04/10 00:27:02;;;;;;;26.77;13.63;;;;;;;9.63;100.00;101891.03;5054578;28;20040;-49
2023/04/10 00:29:28;;;;;;;25.50;13.57;;;;;;;9.64;100.00;101895.44;5054671;28;20021;-47
2023/04/10 00:31:53;;;;;;;31.13;14.20;;;;;;;9.64;100.00;101886.53;5054451;28;20033;-46
2023/04/10 00:34:18;;;;;;;32.45;15.02;;;;;;;9.62;100.00;101873.22;5064734;28;20075;-47
2023/04/10 00:36:45;;;;;;;30.60;13.40;;;;;;;9.58;100.00;101882.56;5074426;28;20055;-50
2023/04/10 00:39:13;;;;;;;27.45;13.68;;;;;;;9.55;100.00;101879.34;5074305;28;20528;-48
2023/04/10 00:41:38;;;;;;;26.67;14.43;;;;;;;9.52;100.00;101872.44;5073596;28;20028;-48
2023/04/10 00:44:03;;;;;;;30.92;14.05;;;;;;;9.51;100.00;101872.59;5073177;28;20180;-47
2023/04/10 00:46:30;;;;;;;36.28;15.23;;;;;;;9.51;100.00;101870.75;5073547;28;20123;-48
2023/04/10 00:48:56;;;;;;;28.67;14.02;;;;;;;9.50;100.00;101874.41;5073633;28;20048;-48
2023/04/10 00:51:22;;;;;;;29.55;14.10;;;;;;;9.49;100.00;101861.16;5071820;28;20047;-49
2023/04/10 00:53:50;;;;;;;28.40;13.55;;;;;;;9.48;100.00;101859.44;5073277;28;20049;-47
2023/04/10 00:56:17;;;;;;;28.65;13.73;;;;;;;9.50;100.00;101852.06;5073469;28;20033;-48
2023/04/10 00:58:42;;;;;;;25.38;13.57;;;;;;;9.47;100.00;101847.84;5072079;28;20469;-48
2023/04/10 01:01:08;;;;;;;30.88;13.90;;;;;;;9.41;100.00;101841.25;5072401;28;20024;-49
2023/04/10 01:03:34;;;;;;;30.00;13.40;;;;;;;9.35;100.00;101835.63;5073571;28;20050;-48
2023/04/10 01:06:05;;;;;;;29.73;14.20;;;;;;;9.30;100.00;101830.69;5071506;28;20040;-49
2023/04/10 01:08:53;;;;;;;29.85;14.05;;;;;;;9.27;100.00;101831.00;5069765;28;20024;-48
2023/04/10 01:11:43;;;;;;;30.30;14.43;;;;;;;9.24;100.00;101820.53;5067080;28;20105;-47
2023/04/10 01:14:15;;;;;;;28.27;13.70;;;;;;;9.21;100.00;101813.63;5068462;28;20020;-46
2023/04/10 01:17:09;;;;;;;29.90;13.75;;;;;;;9.22;100.00;101817.16;5062634;28;20028;-49
2023/04/10 01:20:00;;;;;;;31.98;14.95;;;;;;;9.22;100.00;101817.16;5060477;28;20045;-51
2023/04/10 01:22:35;;;;;;;24.65;12.82;;;;;;;9.18;100.00;101808.56;5068873;28;20365;-48
2023/04/10 01:25:30;;;;;;;30.23;14.32;;;;;;;9.21;100.00;101815.47;5065695;28;20028;-50
2023/04/10 01:28:36;;;;;;;28.80;13.63;;;;;;;9.24;100.00;101804.41;5073239;28;20047;-47
2023/04/10 01:31:01;;;;;;;24.20;13.27;;;;;;;9.28;100.00;101799.59;5025686;28;20049;-48
2023/04/10 01:33:33;;;;;;;27.73;13.70;;;;;;;9.25;100.00;101799.91;5055999;28;20511;-45
2023/04/10 01:36:02;;;;;;;28.67;14.00;;;;;;;9.24;100.00;101793.66;5056633;28;20098;-48
2023/04/10 01:38:28;;;;;;;28.95;13.75;;;;;;;9.25;100.00;101789.16;5056438;28;20029;-49
2023/04/10 01:40:54;;;;;;;27.92;13.30;;;;;;;9.26;100.00;101788.16;5064637;28;20052;-51
2023/04/10 01:43:21;;;;;;;30.77;13.88;;;;;;;9.26;100.00;101789.00;5072366;28;20021;-48
2023/04/10 01:45:48;;;;;;;31.02;14.20;;;;;;;9.30;100.00;101785.03;5070853;28;20020;-48
2023/04/10 01:48:16;;;;;;;30.10;14.53;;;;;;;9.30;100.00;101784.19;5071846;28;20189;-48
2023/04/10 01:50:42;;;;;;;27.60;13.32;;;;;;;9.30;100.00;101786.88;5071453;28;20336;-48
2023/04/10 01:53:08;;;;;;;36.38;14.85;;;;;;;9.28;100.00;101789.69;5072855;28;20032;-46
2023/04/10 01:55:35;;;;;;;28.50;14.30;;;;;;;9.30;100.00;101782.34;5070399;28;20036;-49
2023/04/10 01:58:01;;;;;;;28.15;13.98;;;;;;;9.31;100.00;101783.19;5069541;28;20103;-49
2023/04/10 02:00:27;;;;;;;35.20;15.25;;;;;;;9.33;100.00;101776.66;5059360;28;20115;-52
2023/04/10 02:02:52;;;;;;;28.55;13.30;;;;;;;9.33;100.00;101787.41;5071833;28;20035;-47
2023/04/10 02:05:17;;;;;;;36.53;14.10;;;;;;;9.32;100.00;101785.72;5071796;28;20039;-49
2023/04/10 02:07:46;;;;;;;33.05;14.93;;;;;;;9.26;100.00;101780.94;5071181;28;20042;-48
2023/04/10 02:10:16;;;;;;;33.50;14.27;;;;;;;9.25;100.00;101794.53;5071094;28;20031;-48
2023/04/10 02:12:52;;;;;;;28.00;14.07;;;;;;;9.22;100.00;101783.09;5069549;28;20044;-49
2023/04/10 02:15:20;;;;;;;27.00;14.35;;;;;;;9.21;100.00;101788.59;5062182;28;20025;-49
2023/04/10 02:17:46;;;;;;;30.13;14.43;;;;;;;9.20;100.00;101789.59;5060643;28;20028;-49
2023/04/10 02:20:12;;;;;;;35.05;16.35;;;;;;;9.16;100.00;101780.16;5069088;28;20338;-48
2023/04/10 02:22:42;;;;;;;33.97;15.77;;;;;;;9.17;100.00;101780.00;5070757;28;20025;-46
2023/04/10 02:25:08;;;;;;;29.20;15.50;;;;;;;9.15;100.00;101784.69;5062631;28;20116;-50
2023/04/10 02:27:34;;;;;;;31.02;16.02;;;;;;;9.14;100.00;101776.78;5071908;28;20107;-47
2023/04/10 02:30:02;;;;;;;34.47;15.57;;;;;;;9.12;100.00;101786.84;5063365;28;20123;-46
2023/04/10 02:32:28;;;;;;;30.70;15.68;;;;;;;9.12;100.00;101789.50;5063947;28;20033;-48
2023/04/10 02:34:53;;;;;;;30.13;14.95;;;;;;;9.11;100.00;101787.81;5071304;28;20532;-50
2023/04/10 02:37:18;;;;;;;32.35;16.10;;;;;;;9.07;100.00;101797.16;5072180;28;20055;-51
2023/04/10 02:39:44;;;;;;;31.73;15.35;;;;;;;9.12;100.00;101794.88;5064964;28;20127;-47
2023/04/10 02:42:09;;;;;;;34.05;16.40;;;;;;;9.11;100.00;101798.53;5072010;28;20425;-49
2023/04/10 02:44:35;;;;;;;29.35;15.15;;;;;;;9.14;100.00;101798.28;5071442;28;20029;-48
2023/04/10 02:47:00;;;;;;;34.42;15.88;;;;;;;9.12;100.00;101800.25;5071818;28;20430;-48
2023/04/10 02:49:26;;;;;;;36.15;16.83;;;;;;;9.12;100.00;101798.41;5069746;28;20047;-48
2023/04/10 02:51:51;;;;;;;33.10;16.02;;;;;;;9.10;100.00;101794.19;5066539;28;20039;-48
2023/04/10 02:54:16;;;;;;;31.92;16.30;;;;;;;9.02;100.00;101794.91;5062293;28;20040;-50
2023/04/10 02:56:42;;;;;;;35.08;16.80;;;;;;;8.99;100.00;101792.53;5051839;28;20409;-49
2023/04/10 02:59:07;;;;;;;39.33;17.10;;;;;;;9.07;100.00;101787.28;5051873;28;20025;-48
2023/04/10 03:01:33;;;;;;;33.92;16.42;;;;;;;9.07;100.00;101789.97;5051715;28;20025;-47
2023/04/10 03:03:58;;;;;;;33.05;17.00;;;;;;;9.00;100.00;101781.66;5059841;28;20051;-51
2023/04/10 03:06:26;;;;;;;31.65;16.75;;;;;;;9.05;100.00;101780.34;5070659;28;20032;-47
2023/04/10 03:08:51;;;;;;;36.60;16.88;;;;;;;9.03;100.00;101775.16;5069173;28;20036;-47
2023/04/10 03:11:17;;;;;;;34.92;17.52;;;;;;;8.97;100.00;101765.81;5071393;28;20372;-48
2023/04/10 03:13:42;;;;;;;36.83;18.08;;;;;;;8.99;100.00;101777.28;5071723;28;20027;-48
2023/04/10 03:16:08;;;;;;;40.03;17.17;;;;;;;8.99;100.00;101771.91;5071448;28;20032;-47
2023/04/10 03:18:33;;;;;;;33.17;16.80;;;;;;;8.97;100.00;101776.56;5071464;28;20024;-50
2023/04/10 03:20:59;;;;;;;36.05;16.88;;;;;;;8.97;100.00;101784.63;5069670;28;20041;-48
2023/04/10 03:23:24;;;;;;;33.35;16.13;;;;;;;8.93;100.00;101769.81;5070472;28;20036;-49
2023/04/10 03:25:53;;;;;;;31.98;16.27;;;;;;;8.95;100.00;101759.78;5067318;28;20037;-48
2023/04/10 03:28:19;;;;;;;33.50;16.42;;;;;;;8.93;100.00;101764.44;5070982;28;20040;-49
2023/04/10 03:30:45;;;;;;;35.83;17.83;;;;;;;8.91;100.00;101758.38;5069290;28;20032;-45
2023/04/10 03:33:10;;;;;;;38.60;16.77;;;;;;;8.85;100.00;101748.25;5070638;28;20029;-48
2023/04/10 03:35:36;;;;;;;33.88;15.50;;;;;;;8.86;100.00;101757.13;5066102;28;20024;-48
2023/04/10 03:38:01;;;;;;;36.70;15.63;;;;;;;8.86;100.00;101751.75;5054964;28;20025;-48
2023/04/10 03:40:26;;;;;;;29.05;13.80;;;;;;;8.89;100.00;101738.88;5063596;28;20029;-48
2023/04/10 03:42:52;;;;;;;28.10;14.07;;;;;;;8.93;100.00;101742.13;5058559;28;20032;-47
2023/04/10 03:45:17;;;;;;;27.25;14.02;;;;;;;8.88;100.00;101731.00;5070870;28;20047;-49
2023/04/10 03:47:42;;;;;;;29.13;14.48;;;;;;;8.93;100.00;101729.53;5071419;28;20412;-49
2023/04/10 03:50:08;;;;;;;26.63;13.80;;;;;;;8.90;100.00;101732.53;5070908;28;20469;-48
2023/04/10 03:52:34;;;;;;;30.58;14.20;;;;;;;8.90;100.00;101729.84;5069598;28;20030;-48
2023/04/10 03:54:59;;;;;;;28.55;13.55;;;;;;;8.96;100.00;101729.25;5054961;28;20095;-50
2023/04/10 03:57:25;;;;;;;29.27;13.55;;;;;;;8.98;100.00;101724.56;5063030;28;20029;-49
2023/04/10 03:59:50;;;;;;;24.33;12.88;;;;;;;8.93;100.00;101729.53;5057046;28;20057;-47
2023/04/10 04:02:16;;;;;;;29.23;13.75;;;;;;;8.91;100.00;101728.84;5064307;28;20227;-49
2023/04/10 04:04:41;;;;;;;25.20;13.23;;;;;;;8.93;100.00;101718.81;5060631;28;20039;-51
2023/04/10 04:07:07;;;;;;;35.75;13.90;;;;;;;8.98;100.00;101719.22;5067327;28;20041;-47
2023/04/10 04:09:33;;;;;;;31.20;14.55;;;;;;;8.95;100.00;101716.81;5070695;28;20107;-50
2023/04/10 04:11:58;;;;;;;27.60;13.40;;;;;;;8.99;100.00;101707.47;5067704;28;20064;-48
2023/04/10 04:14:24;;;;;;;24.38;13.07;;;;;;;9.04;100.00;101722.28;5062583;28;20032;-47
2023/04/10 04:16:49;;;;;;;24.65;13.13;;;;;;;9.03;100.00;101710.72;5070858;28;20032;-47
2023/04/10 04:19:15;;;;;;;23.42;12.43;;;;;;;9.08;100.00;101713.75;5069944;28;20036;-47
2023/04/10 04:21:40;;;;;;;26.88;12.85;;;;;;;9.07;100.00;101705.88;5061000;28;20032;-50
2023/04/10 04:24:05;;;;;;;27.88;13.88;;;;;;;9.11;100.00;101701.88;5056577;28;20074;-51
2023/04/10 04:26:32;;;;;;;25.25;12.85;;;;;;;9.19;100.00;101689.41;5071689;28;20516;-47
2023/04/10 04:28:57;;;;;;;24.60;12.25;;;;;;;9.17;100.00;101686.00;5071523;28;20454;-50
2023/04/10 04:31:23;;;;;;;26.30;13.70;;;;;;;9.20;100.00;101696.44;5063082;28;20025;-48
2023/04/10 04:33:48;;;;;;;25.05;12.85;;;;;;;9.25;100.00;101687.94;5067907;28;20037;-48
2023/04/10 04:36:14;;;;;;;22.77;11.80;;;;;;;9.26;100.00;101686.94;5053027;28;20036;-49
2023/04/10 04:38:39;;;;;;;22.83;12.15;;;;;;;9.29;100.00;101683.09;5060243;28;20111;-49
2023/04/10 04:41:05;;;;;;;24.15;12.10;;;;;;;9.33;100.00;101674.59;5067288;28;20334;-47
2023/04/10 04:43:30;;;;;;;24.50;12.15;;;;;;;9.40;100.00;101672.97;5069574;28;20075;-47
2023/04/10 04:45:55;;;;;;;20.48;12.00;;;;;;;9.37;100.00;101673.28;5066822;28;20053;-49
2023/04/10 04:48:21;;;;;;;27.40;12.23;;;;;;;9.48;100.00;101674.03;5059018;28;20466;-48
2023/04/10 04:50:46;;;;;;;19.88;10.88;;;;;;;9.53;100.00;101677.09;5053304;28;20032;-49
2023/04/10 04:53:12;;;;;;;26.25;12.32;;;;;;;9.53;100.00;101677.09;5068521;28;20038;-49
2023/04/10 04:55:38;;;;;;;25.02;11.95;;;;;;;9.60;100.00;101675.50;5067743;28;20032;-48
2023/04/10 04:58:03;;;;;;;24.75;11.82;;;;;;;9.57;100.00;101670.44;5053562;28;20052;-47
2023/04/10 05:00:28;;;;;;;22.55;11.85;;;;;;;9.66;100.00;101674.84;5067275;28;20029;-47
2023/04/10 05:02:54;;;;;;;22.10;11.45;;;;;;;9.61;100.00;101672.66;5059799;28;20032;-49
2023/04/10 05:05:19;;;;;;;22.15;11.80;;;;;;;9.58;100.00;101666.72;5065278;28;20119;-49
2023/04/10 05:07:44;;;;;;;21.83;11.85;;;;;;;9.57;100.00;101675.81;5065363;28;20032;-47
2023/04/10 05:10:10;;;;;;;23.42;12.23;;;;;;;9.50;100.00;101669.34;5070919;28;20042;-48
2023/04/10 05:12:35;;;;;;;20.90;10.82;;;;;;;9.57;100.00;101665.06;5071134;28;20183;-48
2023/04/10 05:15:01;;;;;;;20.13;10.85;;;;;;;9.51;100.00;101663.00;5070466;28;20024;-50
2023/04/10 05:17:26;;;;;;;21.50;11.82;;;;;;;9.58;100.00;101661.34;5065566;28;20056;-48
2023/04/10 05:19:51;;;;;;;21.10;11.30;;;;;;;9.52;100.00;101656.63;5072953;28;20028;-48
2023/04/10 05:22:17;;;;;;;20.85;11.27;;;;;;;9.52;100.00;101662.81;5069471;28;20115;-47
2023/04/10 05:24:42;;;;;;;28.48;11.65;;;;;;;9.48;100.00;101661.47;5071662;28;20033;-48
2023/04/10 05:27:07;;;;;;;19.05;10.43;;;;;;;9.45;100.00;101653.69;5058467;28;20069;-49
2023/04/10 05:29:33;;;;;;;21.88;11.65;;;;;;;9.40;100.00;101654.16;5072358;28;20028;-49
2023/04/10 05:31:59;;;;;;;22.90;11.82;;;;;;;9.38;100.00;101658.84;5066665;28;20112;-50
2023/04/10 05:34:24;;;;;;;20.45;11.05;;;;;;;9.39;100.00;101657.84;5071970;28;20037;-47
2023/04/10 05:36:50;;;;;;;17.90;10.27;;;;;;;9.33;100.00;101653.09;5075195;28;20424;-49
2023/04/10 05:39:16;;;;;;;22.33;9.98;;;;;;;9.38;100.00;101658.00;5066026;28;20029;-46
2023/04/10 05:41:41;;;;;;;17.98;10.73;;;;;;;9.40;100.00;101648.78;5061560;28;20024;-48
2023/04/10 05:44:06;;;;;;;18.85;10.80;;;;;;;9.43;100.00;101647.66;5071982;28;20055;-49
2023/04/10 05:46:32;;;;;;;19.88;10.45;;;;;;;9.45;100.00;101638.44;5071974;28;20499;-48
2023/04/10 05:48:57;;;;;;;16.83;10.30;;;;;;;9.48;100.00;101641.78;5071023;28;20461;-48
2023/04/10 05:51:23;;;;;;;18.90;10.27;;;;;;;9.45;100.00;101638.44;5066092;28;20021;-49
2023/04/10 05:53:49;;;;;;;18.65;9.70;;;;;;;9.51;100.00;101638.81;5061638;28;20492;-48
2023/04/10 05:56:14;;;;;;;18.38;9.38;;;;;;;9.51;100.00;101639.66;5064908;28;20021;-48
2023/04/10 05:58:40;;;;;;;19.13;9.45;;;;;;;9.52;100.00;101635.13;5068827;28;20033;-47
2023/04/10 06:01:05;;;;;;;18.65;10.35;;;;;;;9.67;100.00;101630.88;5054486;28;20108;-47
2023/04/10 06:03:30;;;;;;;18.83;9.95;;;;;;;9.63;100.00;101637.53;5072296;28;20060;-48
2023/04/10 06:05:57;;;;;;;17.13;9.95;;;;;;;9.67;100.00;101633.56;5072477;28;20025;-47
2023/04/10 06:08:22;;;;;;;19.85;9.68;;;;;;;9.71;100.00;101626.84;5075563;28;20028;-47
2023/04/10 06:10:48;;;;;;;22.88;10.43;;;;;;;9.67;100.00;101623.66;5070451;28;20107;-47
2023/04/10 06:13:16;;;;;;;15.45;9.27;;;;;;;9.79;100.00;101620.69;5073551;28;20047;-50
2023/04/10 06:15:41;;;;;;;;;;;;;;;9.74;100.00;101615.81;5073351;28;20028;-48
2023/04/10 06:18:06;;;;;;;17.23;9.55;;;;;;;9.75;100.00;101612.09;5071912;28;19958;-48
2023/04/10 06:20:31;;;;;;;16.33;9.32;;;;;;;9.70;100.00;101598.28;5064063;28;20373;-47
2023/04/10 06:22:57;;;;;;;18.40;9.30;;;;;;;9.73;100.00;101600.66;5052800;28;20060;-49
2023/04/10 06:25:23;;;;;;;17.52;9.13;;;;;;;9.76;100.00;101588.75;5053027;28;20036;-48
2023/04/10 06:27:48;;;;;;;15.45;8.88;;;;;;;9.85;100.00;101594.03;5053017;28;20315;-46
2023/04/10 06:30:13;;;;;;;15.73;8.63;;;;;;;9.83;100.00;101585.28;5053727;28;20029;-49
2023/04/10 06:32:39;;;;;;;19.30;9.15;;;;;;;9.87;100.00;101581.28;5062055;28;20103;-47
2023/04/10 06:35:04;;;;;;;14.95;8.90;;;;;;;9.85;100.00;101577.91;5069524;28;20029;-48
2023/04/10 06:37:30;;;;;;;15.45;9.30;;;;;;;9.89;100.00;101576.56;5071631;28;20089;-49
2023/04/10 06:40:05;;;;;;;15.13;9.40;;;;;;;10.02;100.00;101577.97;5071157;28;20033;-46
2023/04/10 06:42:30;;;;;;;15.32;8.98;;;;;;;10.02;100.00;101577.97;5071422;28;20082;-47
2023/04/10 06:44:56;;;;;;;17.42;9.32;;;;;;;10.10;100.00;101580.72;5070805;28;20033;-48
2023/04/10 06:47:21;;;;;;;13.50;8.40;;;;;;;10.22;100.00;101574.06;5072358;28;20101;-48
2023/04/10 06:49:46;;;;;;;15.68;8.77;;;;;;;10.26;100.00;101572.72;5069897;28;20028;-48
2023/04/10 06:52:12;;;;;;;15.88;8.85;;;;;;;10.35;100.00;101567.38;5071978;28;20115;-48
2023/04/10 06:54:37;;;;;;;16.17;9.23;;;;;;;10.38;100.00;101575.16;5071508;28;20068;-49
2023/04/10 06:57:02;;;;;;;16.13;9.05;;;;;;;10.37;100.00;101565.38;5063376;28;20027;-49
2023/04/10 06:59:28;;;;;;;16.40;8.60;;;;;;;10.47;100.00;101560.72;5070017;28;20036;-51
2023/04/10 07:01:53;;;;;;;14.60;9.38;;;;;;;10.48;100.00;101565.09;5066578;28;20469;-49
2023/04/10 07:04:19;;;;;;;16.92;9.10;;;;;;;10.42;100.00;101552.28;5069888;28;20043;-48
2023/04/10 07:06:45;;;;;;;13.10;8.25;;;;;;;10.39;100.00;101563.38;5069804;28;20753;-49
2023/04/10 07:09:10;;;;;;;12.25;7.97;;;;;;;10.48;100.00;101562.41;5066807;28;20028;-49
2023/04/10 07:11:35;;;;;;;16.73;8.43;;;;;;;10.47;100.00;101560.72;5069107;28;20063;-50
2023/04/10 07:14:01;;;;;;;19.27;9.10;;;;;;;10.53;100.00;101554.66;5062491;28;20056;-50
2023/04/10 07:16:28;;;;;;;18.55;8.57;;;;;;;10.45;100.00;101551.94;5066807;28;20033;-47
2023/04/10 07:18:53;;;;;;;17.98;9.18;;;;;;;10.61;100.00;101537.69;5069367;28;20035;-47
2023/04/10 07:21:18;;;;;;;13.48;8.85;;;;;;;10.55;100.00;101531.97;5066746;28;20787;-48
2023/04/10 07:23:44;;;;;;;16.77;8.30;;;;;;;10.48;100.00;101522.88;5067036;28;20036;-47
2023/04/10 07:26:09;;;;;;;14.98;8.65;;;;;;;10.44;100.00;101523.38;5050402;28;20149;-48
2023/04/10 07:28:35;;;;;;;18.90;9.20;;;;;;;10.53;100.00;101519.66;5062949;28;20074;-49
2023/04/10 07:31:00;;;;;;;15.10;9.32;;;;;;;10.56;100.00;101513.97;5063184;28;20065;-51
2023/04/10 07:33:26;;;;;;;16.20;9.38;;;;;;;10.50;100.00;101510.06;5069354;28;20098;-49
2023/04/10 07:35:52;;;;;;;17.05;8.93;;;;;;;10.56;100.00;101511.28;5067532;28;20274;-47
2023/04/10 07:38:17;;;;;;;15.07;9.02;;;;;;;10.65;100.00;101512.97;5067950;28;20048;-46
2023/04/10 07:40:43;;;;;;;18.05;9.25;;;;;;;10.75;100.00;101510.97;5068527;28;20111;-49
2023/04/10 07:43:08;;;;;;;15.52;8.80;;;;;;;10.76;100.00;101504.56;5068381;28;20037;-48
2023/04/10 07:45:34;;;;;;;19.17;10.18;;;;;;;10.78;100.00;101501.72;5068562;28;20083;-46
2023/04/10 07:48:00;;;;;;;19.52;10.30;;;;;;;10.64;100.00;101499.69;5070136;28;20021;-49
2023/04/10 07:50:25;;;;;;;14.70;8.90;;;;;;;10.68;100.00;101493.78;5068517;28;20478;-48
2023/04/10 07:52:50;;;;;;;16.92;9.35;;;;;;;10.65;100.00;101487.91;5068913;28;20028;-50
2023/04/10 07:55:16;;;;;;;15.07;8.80;;;;;;;10.64;100.00;101495.16;5052835;28;20103;-48
2023/04/10 07:57:41;;;;;;;16.30;8.73;;;;;;;10.74;100.00;101479.69;5064231;28;20017;-48
2023/04/10 08:00:07;;;;;;;19.42;9.68;;;;;;;10.57;100.00;101480.66;5050393;28;20056;-49
2023/04/10 08:02:32;;;;;;;15.27;9.15;;;;;;;10.51;100.00;101474.09;5049393;28;20496;-47
2023/04/10 08:04:57;;;;;;;15.13;9.30;;;;;;;10.47;100.00;101463.81;5050045;28;20487;-49
2023/04/10 08:07:23;;;;;;;19.80;9.05;;;;;;;10.55;100.00;101463.84;5058167;28;20025;-48
2023/04/10 08:09:48;;;;;;;19.23;10.10;;;;;;;10.50;100.00;101464.31;5054819;28;20873;-48
2023/04/10 08:12:14;;;;;;;14.98;9.40;;;;;;;10.55;100.00;101455.75;5070303;28;20056;-48
2023/04/10 08:14:39;;;;;;;14.02;8.38;;;;;;;10.61;100.00;101443.47;5067453;28;20035;-50
2023/04/10 08:17:05;;;;;;;16.33;8.85;;;;;;;10.67;100.00;101445.53;5059201;28;20036;-46
2023/04/10 08:19:30;;;;;;;14.18;8.93;;;;;;;10.70;100.00;101445.19;5052266;28;20032;-48
2023/04/10 08:21:55;;;;;;;15.68;9.88;;;;;;;10.83;100.00;101444.69;5050265;28;20319;-48
2023/04/10 08:24:21;;;;;;;18.58;9.50;;;;;;;10.87;100.00;101444.16;5069772;28;20036;-49
2023/04/10 08:26:47;;;;;;;16.60;9.55;;;;;;;11.00;100.00;101438.25;5070507;28;20078;-50
2023/04/10 08:29:12;;;;;;;18.52;9.43;;;;;;;11.12;100.00;101447.69;5071313;28;20032;-48
2023/04/10 08:31:38;;;;;;;16.58;9.60;;;;;;;11.21;100.00;101440.41;5071608;28;20131;-48
2023/04/10 08:34:03;;;;;;;18.15;9.82;;;;;;;11.33;100.00;101439.03;5069136;28;20440;-49
2023/04/10 08:36:30;;;;;;;15.48;9.40;;;;;;;11.30;100.00;101433.16;5067784;28;20098;-49
2023/04/10 08:38:55;;;;;;;17.42;9.75;;;;;;;11.32;100.00;101417.66;5053625;28;20413;-49
2023/04/10 08:41:21;;;;;;;16.27;9.38;;;;;;;11.47;100.00;101412.38;5060908;28;20036;-48
2023/04/10 08:43:48;;;;;;;17.25;8.68;;;;;;;11.39;100.00;101410.56;5069865;28;20056;-50
2023/04/10 08:46:14;;;;;;;13.75;8.90;;;;;;;11.51;100.00;101411.03;5074249;28;20028;-48
2023/04/10 08:49:00;;;;;;;14.02;8.85;;;;;;;11.64;100.00;101417.56;5062977;28;20477;-50
2023/04/10 08:51:31;;;;;;;16.30;9.35;;;;;;;11.67;100.00;101407.44;5072496;28;20389;-47
2023/04/10 08:54:05;;;;;;;15.20;9.10;;;;;;;11.81;100.00;101404.00;5072316;28;20396;-48
2023/04/10 08:56:32;;;;;;;17.85;9.60;;;;;;;11.63;100.00;101406.94;5072487;28;20021;-49
2023/04/10 08:58:58;;;;;;;14.85;9.30;;;;;;;11.53;100.00;101401.75;5070767;28;20031;-49
2023/04/10 09:01:24;;;;;;;18.67;9.68;;;;;;;11.63;100.00;101396.97;5066670;28;20115;-48
2023/04/10 09:03:50;;;;;;;14.95;9.20;;;;;;;11.58;100.00;101396.66;5071582;28;20079;-49
2023/04/10 09:06:15;;;;;;;16.33;10.05;;;;;;;11.60;100.00;101391.94;5067869;28;20104;-49
2023/04/10 09:08:40;;;;;;;14.40;9.38;;;;;;;11.60;100.00;101375.75;5066329;28;20524;-48
2023/04/10 09:11:06;;;;;;;15.25;9.10;;;;;;;11.54;100.00;101375.66;5065755;28;20143;-50
2023/04/10 09:13:40;;;;;;;14.48;8.77;;;;;;;11.53;100.00;101374.81;5067574;28;20048;-48
2023/04/10 09:16:06;;;;;;;15.90;8.98;;;;;;;11.47;100.00;101383.56;5069726;28;20028;-49
2023/04/10 09:18:42;;;;;;;15.95;8.68;;;;;;;11.50;100.00;101364.34;5071762;28;20056;-50
2023/04/10 09:21:09;;;;;;;17.33;8.75;;;;;;;11.42;100.00;101348.22;5072781;28;20029;-49
2023/04/10 09:23:35;;;;;;;15.48;8.77;;;;;;;11.40;100.00;101352.94;5072061;28;20469;-49
2023/04/10 09:26:00;;;;;;;14.93;9.45;;;;;;;11.55;100.00;101353.88;5071089;28;20066;-48
2023/04/10 09:28:25;;;;;;;13.60;8.63;;;;;;;11.54;100.00;101354.09;5071883;28;20036;-49
2023/04/10 09:30:51;;;;;;;12.63;8.30;;;;;;;11.63;100.00;101356.53;5071123;28;20082;-48
2023/04/10 09:33:26;;;;;;;14.30;8.85;;;;;;;11.69;100.00;101351.47;5070641;28;20109;-49
2023/04/10 09:35:52;;;;;;;14.75;9.23;;;;;;;11.86;100.00;101345.00;5070487;28;20921;-48
2023/04/10 09:38:19;;;;;;;14.57;8.77;;;;;;;11.90;100.00;101356.25;5072008;28;20115;-48
2023/04/10 09:40:45;;;;;;;18.13;9.57;;;;;;;11.99;100.00;101350.66;5071765;28;20526;-48
2023/04/10 09:43:21;;;;;;;15.38;8.77;;;;;;;11.97;100.00;101341.03;5072243;28;20033;-48
2023/04/10 09:45:51;;;;;;;16.27;8.65;;;;;;;12.22;100.00;101337.16;5070642;28;20064;-47
2023/04/10 09:48:17;;;;;;;14.50;8.95;;;;;;;12.47;99.76;101321.59;5072413;28;20033;-48
2023/04/10 09:50:42;;;;;;;14.15;8.43;;;;;;;12.60;99.22;101322.81;5072911;28;20104;-47
2023/04/10 09:53:10;;;;;;;13.07;8.82;;;;;;;12.50;99.00;101318.50;5071987;28;20128;-47
2023/04/10 09:55:36;;;;;;;13.48;8.38;;;;;;;12.64;99.11;101325.00;5069113;28;20370;-46
2023/04/10 09:58:03;;;;;;;13.75;8.45;;;;;;;12.78;98.92;101326.03;5071422;28;20036;-48
2023/04/10 10:00:28;;;;;;;13.88;9.05;;;;;;;13.02;97.26;101318.69;5070448;28;20234;-47
2023/04/10 10:02:54;;;;;;;16.08;8.63;;;;;;;13.29;95.88;101317.19;5071674;28;20032;-50
2023/04/10 10:05:21;;;;;;;14.85;7.95;;;;;;;13.23;95.63;101309.81;5069951;28;20492;-49
2023/04/10 10:07:47;;;;;;;13.50;9.13;;;;;;;13.00;95.62;101307.22;5067980;28;20032;-48
2023/04/10 10:10:13;;;;;;;14.57;8.80;;;;;;;13.24;95.94;101306.91;5068053;28;20033;-48
2023/04/10 10:12:45;;;;;;;14.65;8.68;;;;;;;13.27;96.37;101298.47;5070317;28;20029;-50
2023/04/10 10:15:10;;;;;;;18.65;8.73;;;;;;;13.64;94.97;101299.34;5067338;28;20040;-48
2023/04/10 10:18:15;;;;;;;15.00;8.32;;;;;;;13.86;93.28;101296.66;5071635;28;20039;-47
2023/04/10 10:20:43;;;;;;;12.35;8.23;;;;;;;14.23;92.79;101280.13;5070957;28;20095;-50
2023/04/10 10:23:09;;;;;;;13.57;8.05;;;;;;;13.94;91.72;101274.88;5071226;28;20464;-48
2023/04/10 10:25:35;;;;;;;13.18;7.78;;;;;;;14.12;92.57;101264.44;5066849;28;20090;-46
2023/04/10 10:28:03;;;;;;;10.45;7.25;;;;;;;14.17;93.07;101261.97;5064851;28;20032;-49
2023/04/10 10:30:31;;;;;;;14.32;8.50;;;;;;;14.10;91.68;101247.53;5073983;28;20162;-47
2023/04/10 10:32:57;;;;;;;15.93;8.55;;;;;;;14.16;91.58;101243.19;5068203;28;20032;-49
2023/04/10 10:35:24;;;;;;;14.50;7.65;;;;;;;14.17;92.01;101240.31;5055535;28;20474;-48
2023/04/10 10:37:50;;;;;;;13.15;8.27;;;;;;;14.24;92.04;101216.84;5070553;28;20032;-48
2023/04/10 10:40:28;;;;;;;10.95;7.50;;;;;;;14.41;91.55;101244.44;5063915;28;20063;-47
2023/04/10 10:43:15;;;;;;;12.32;7.82;;;;;;;14.54;90.04;101223.94;5051853;28;20425;-47
2023/04/10 10:45:56;;;;;;;12.93;8.20;;;;;;;14.81;90.63;101209.50;5055104;28;20024;-49
2023/04/10 10:48:21;;;;;;;13.27;8.40;;;;;;;15.02;89.14;101211.25;5071681;28;20428;-49
2023/04/10 10:50:57;;;;;;;10.90;7.97;;;;;;;15.27;87.86;101214.28;5071135;28;20028;-48
2023/04/10 10:53:42;;;;;;;14.00;8.07;;;;;;;14.73;88.30;101206.13;5070153;28;20492;-49
2023/04/10 10:56:17;;;;;;;17.65;8.20;;;;;;;14.74;88.97;101203.22;5063740;28;20037;-47
2023/04/10 10:58:49;;;;;;;12.00;7.47;;;;;;;14.92;88.61;101200.78;5055273;28;20036;-50
2023/04/10 11:01:15;;;;;;;11.90;7.43;;;;;;;15.22;89.72;101192.38;5063589;28;20051;-49
2023/04/10 11:03:43;;;;;;;10.10;7.28;;;;;;;15.20;87.11;101201.75;5072310;28;20123;-47
2023/04/10 11:06:11;;;;;;;12.73;8.10;;;;;;;15.14;87.76;101189.84;5072795;28;20439;-51
2023/04/10 11:08:47;;;;;;;10.48;7.80;;;;;;;14.92;88.58;101172.88;5072104;28;20109;-48
2023/04/10 11:11:22;;;;;;;13.07;7.50;;;;;;;14.99;88.55;101173.72;5072589;28;20021;-48